Time;durP1;ratioP1;P1;durP2;ratioP2;P2;SDS_P1;SDS_P2;PMS_P1;PMS_P2;Temp;Humidity;BMP_temperature;BMP_pressure;BME280_temperature;BME280_humidity;BME280_pressure;Samples;Min_cycle;Max_cycle;Signal;HPM_P1;HPM_P2
2022/09/20 00:01:30;;;;;;;11.25;2.25;;;;;;;;;;5090323;27;20767;-77
2022/09/20 00:03:59;;;;;;;9.77;1.90;;;9.90;99.90;;;;;;5074510;28;20410;-78
2022/09/20 00:06:28;;;;;;;6.68;1.80;;;9.80;99.90;;;;;;5072939;27;20423;-77
2022/09/20 00:08:55;;;;;;;8.35;2.00;;;;;;;;;;5089120;28;20416;-78
2022/09/20 00:11:31;;;;;;;14.77;2.22;;;;;;;;;;5098818;27;20418;-78
2022/09/20 00:13:59;;;;;;;10.00;2.03;;;9.80;99.90;;;;;;5097649;27;20440;-78
2022/09/20 00:16:35;;;;;;;10.82;2.05;;;9.80;99.90;;;;;;5112577;27;20501;-77
2022/09/20 00:19:02;;;;;;;8.48;1.85;;;;;;;;;;5115097;27;20460;-78
2022/09/20 00:21:30;;;;;;;7.78;2.28;;;9.60;99.90;;;;;;5108873;27;20433;-77
2022/09/20 00:23:56;;;;;;;10.32;2.08;;;;;;;;;;5088211;28;20430;-78
2022/09/20 00:26:23;;;;;;;11.45;2.20;;;;;;;;;;5073118;28;20812;-78
2022/09/20 00:28:50;;;;;;;10.73;2.47;;;;;;;;;;5064790;28;20804;-77
2022/09/20 00:31:16;;;;;;;9.88;2.20;;;;;;;;;;5053314;28;20486;-78
2022/09/20 00:36:27;;;;;;;16.00;2.40;;;;;;;;;;5057986;28;20560;-78
2022/09/20 00:38:58;;;;;;;10.35;1.92;;;9.70;99.90;;;;;;5063885;28;20415;-78
2022/09/20 00:41:24;;;;;;;9.55;1.88;;;;;;;;;;5041231;28;20423;-78
2022/09/20 00:43:50;;;;;;;9.95;1.92;;;;;;;;;;5055030;28;20942;-78
2022/09/20 00:46:21;;;;;;;12.50;2.00;;;;;;;;;;5054624;28;20431;-78
2022/09/20 00:48:47;;;;;;;11.57;2.47;;;;;;;;;;5073886;28;20897;-78
2022/09/20 00:51:15;;;;;;;10.65;2.13;;;;;;;;;;5054597;28;20421;-78
2022/09/20 00:53:44;;;;;;;11.95;2.58;;;;;;;;;;5053843;28;20427;-78
2022/09/20 00:56:19;;;;;;;13.40;2.45;;;9.60;99.90;;;;;;5053856;28;20410;-78
2022/09/20 00:58:58;;;;;;;17.05;2.67;;;;;;;;;;5055670;28;20455;-78
2022/09/20 01:01:24;;;;;;;10.50;2.23;;;;;;;;;;5069896;28;20437;-78
2022/09/20 01:03:50;;;;;;;9.55;2.50;;;;;;;;;;5050571;28;20435;-78
2022/09/20 01:06:17;;;;;;;13.07;2.80;;;9.50;99.90;;;;;;5052153;28;20485;-78
2022/09/20 01:08:49;;;;;;;12.80;2.50;;;9.50;99.90;;;;;;5041609;28;20425;-77
2022/09/20 01:11:15;;;;;;;11.60;2.20;;;;;;;;;;5056964;28;20422;-76
2022/09/20 01:13:41;;;;;;;9.50;2.40;;;;;;;;;;5058773;28;20449;-77
2022/09/20 01:16:08;;;;;;;10.68;2.10;;;;;;;;;;5052886;28;20883;-77
2022/09/20 01:18:34;;;;;;;9.52;2.70;;;;;;;;;;5053095;28;20433;-77
2022/09/20 01:21:01;;;;;;;9.35;2.33;;;9.40;99.90;;;;;;5052661;28;20447;-76
2022/09/20 01:23:37;;;;;;;9.57;2.20;;;;;;;;;;5082333;28;20911;-77
2022/09/20 01:26:18;;;;;;;9.32;2.42;;;;;;;;;;5059234;28;20435;-77
2022/09/20 01:28:46;;;;;;;13.38;2.90;;;9.20;99.90;;;;;;5053066;28;20428;-77
2022/09/20 01:31:39;;;;;;;10.63;2.80;;;9.20;99.90;;;;;;5063775;28;20580;-77
2022/09/20 01:34:13;;;;;;;13.77;2.50;;;;;;;;;;5054821;28;20422;-76
2022/09/20 01:36:43;;;;;;;13.40;2.45;;;;;;;;;;5060015;28;20426;-76
2022/09/20 01:39:50;;;;;;;11.48;2.08;;;9.10;99.90;;;;;;5053210;28;20411;-76
2022/09/20 01:42:16;;;;;;;11.75;2.53;;;;;;;;;;5054596;28;20433;-76
2022/09/20 01:44:42;;;;;;;10.65;2.38;;;;;;;;;;5054283;28;20399;-76
2022/09/20 01:47:17;;;;;;;9.20;2.37;;;;;;;;;;5047982;28;20510;-77
2022/09/20 01:50:10;;;;;;;11.30;2.53;;;9.30;99.90;;;;;;5054124;28;21007;-77
2022/09/20 01:52:54;;;;;;;14.07;2.80;;;9.20;99.90;;;;;;5055160;28;20466;-77
2022/09/20 01:55:33;;;;;;;11.85;2.42;;;;;;;;;;5064419;28;20423;-77
2022/09/20 01:58:02;;;;;;;10.85;2.30;;;;;;;;;;5069403;28;20501;-77
2022/09/20 02:00:57;;;;;;;8.93;2.15;;;9.10;99.90;;;;;;5042979;28;20533;-77
2022/09/20 02:03:42;;;;;;;10.57;2.67;;;;;;;;;;5055296;28;20485;-77
2022/09/20 02:06:22;;;;;;;11.80;2.90;;;;;;;;;;5049161;28;20423;-77
2022/09/20 02:09:00;;;;;;;13.40;2.40;;;;;;;;;;5052623;28;20474;-77
2022/09/20 02:11:35;;;;;;;9.77;2.50;;;;;;;;;;5036319;28;20423;-77
2022/09/20 02:14:42;;;;;;;11.98;2.67;;;9.00;99.90;;;;;;5036727;28;20415;-77
2022/09/20 02:17:26;;;;;;;10.85;2.60;;;;;;;;;;5064331;28;20432;-77
2022/09/20 02:20:01;;;;;;;10.68;2.38;;;;;;;;;;5065525;28;20998;-78
2022/09/20 02:22:40;;;;;;;9.85;2.60;;;;;;;;;;5052866;28;20899;-77
2022/09/20 02:25:15;;;;;;;9.90;2.40;;;;;;;;;;5053537;28;20907;-77
2022/09/20 02:27:52;;;;;;;13.13;2.40;;;;;;;;;;5060659;28;21791;-76
2022/09/20 02:30:37;;;;;;;9.70;2.38;;;;;;;;;;5055220;28;20429;-77
2022/09/20 02:33:09;;;;;;;9.70;2.50;;;;;;;;;;5054269;28;20419;-77
2022/09/20 02:35:41;;;;;;;8.90;2.40;;;;;;;;;;5058506;28;20423;-77
2022/09/20 02:38:26;;;;;;;10.25;2.40;;;;;;;;;;5055336;28;20511;-77
2022/09/20 02:40:55;;;;;;;12.77;2.67;;;;;;;;;;5088355;28;20482;-77
2022/09/20 02:43:46;;;;;;;9.23;2.40;;;9.30;99.90;;;;;;5056810;28;20847;-77
2022/09/20 02:46:50;;;;;;;7.60;2.47;;;;;;;;;;5057809;28;21066;-77
2022/09/20 02:49:23;;;;;;;13.07;2.50;;;;;;;;;;5030385;28;20425;-77
2022/09/20 02:51:51;;;;;;;10.05;2.60;;;;;;;;;;5033236;28;20425;-77
2022/09/20 02:54:37;;;;;;;10.10;2.88;;;;;;;;;;5052851;28;20423;-77
2022/09/20 02:57:08;;;;;;;8.90;2.45;;;;;;;;;;5050274;28;20427;-77
2022/09/20 02:59:34;;;;;;;10.43;2.28;;;;;;;;;;5061524;28;20505;-77
2022/09/20 03:02:07;;;;;;;9.93;2.55;;;;;;;;;;5059692;28;20491;-77
2022/09/20 03:04:51;;;;;;;12.77;2.67;;;;;;;;;;5062896;28;20963;-77
2022/09/20 03:07:20;;;;;;;9.60;2.13;;;;;;;;;;5066034;28;20890;-75
2022/09/20 03:09:53;;;;;;;12.20;2.45;;;;;;;;;;5075282;28;20445;-75
2022/09/20 03:12:31;;;;;;;10.07;2.77;;;9.40;99.90;;;;;;5071608;28;20421;-75
2022/09/20 03:15:09;;;;;;;12.40;2.25;;;;;;;;;;5060907;28;21053;-75
2022/09/20 03:17:44;;;;;;;9.38;2.35;;;;;;;;;;5067346;28;20425;-75
2022/09/20 03:20:30;;;;;;;8.50;2.40;;;;;;;;;;5048440;28;20424;-75
2022/09/20 03:23:11;;;;;;;7.25;1.83;;;;;;;;;;5055408;28;20411;-75
2022/09/20 03:25:38;;;;;;;9.23;1.80;;;;;;;;;;5055513;28;20525;-75
2022/09/20 03:28:16;;;;;;;8.30;1.90;;;;;;;;;;5068312;28;20787;-75
2022/09/20 03:31:00;;;;;;;10.90;2.13;;;;;;;;;;5058858;28;20459;-74
2022/09/20 03:33:39;;;;;;;8.02;1.90;;;;;;;;;;5055526;28;20927;-74
2022/09/20 03:36:07;;;;;;;10.30;1.98;;;;;;;;;;5055123;28;20437;-75
2022/09/20 03:38:33;;;;;;;9.30;2.00;;;;;;;;;;5055057;28;20427;-74
2022/09/20 03:40:59;;;;;;;7.65;1.88;;;;;;;;;;5054827;28;20451;-75
2022/09/20 03:43:38;;;;;;;8.57;1.73;;;;;;;;;;5040532;28;20490;-75
2022/09/20 03:46:13;;;;;;;6.28;1.60;;;;;;;;;;5072374;28;20438;-75
2022/09/20 03:48:42;;;;;;;8.45;1.85;;;;;;;;;;5051997;28;20765;-75
2022/09/20 03:51:15;;;;;;;8.05;2.13;;;;;;;;;;5038399;28;20424;-75
2022/09/20 03:54:00;;;;;;;9.43;2.10;;;;;;;;;;5037566;28;20502;-74
2022/09/20 03:56:45;;;;;;;6.20;1.58;;;;;;;;;;5038353;28;20705;-75
2022/09/20 03:59:12;;;;;;;9.35;1.90;;;;;;;;;;5039434;28;20771;-75
2022/09/20 04:01:56;;;;;;;5.27;1.50;;;;;;;;;;5054398;28;20430;-75
2022/09/20 04:04:41;;;;;;;8.00;1.73;;;;;;;;;;5061463;28;20424;-74
2022/09/20 04:07:13;;;;;;;6.07;1.92;;;;;;;;;;5048402;28;20418;-74
2022/09/20 04:10:15;;;;;;;9.40;1.98;;;10.40;99.90;;;;;;5054978;28;20455;-75
2022/09/20 04:13:01;;;;;;;9.13;1.77;;;;;;;;;;5058074;28;20449;-75
2022/09/20 04:15:31;;;;;;;6.90;2.05;;;10.40;99.90;;;;;;5044477;28;20426;-75
2022/09/20 04:18:02;;;;;;;7.85;2.20;;;10.60;99.90;;;;;;5029920;28;20433;-75
2022/09/20 04:20:36;;;;;;;7.40;2.00;;;;;;;;;;5072426;28;20483;-75
2022/09/20 04:23:08;;;;;;;5.63;2.03;;;;;;;;;;5073306;28;20406;-75
2022/09/20 04:25:43;;;;;;;10.67;1.90;;;10.50;99.90;;;;;;5102084;27;20422;-75
2022/09/20 04:28:20;;;;;;;8.50;1.90;;;10.40;99.90;;;;;;5083677;28;20575;-75
2022/09/20 04:30:47;;;;;;;6.90;1.90;;;;;;;;;;5087176;27;20428;-75
2022/09/20 04:33:31;;;;;;;8.77;2.05;;;;;;;;;;5080861;27;20421;-73
2022/09/20 04:36:29;;;;;;;7.13;2.00;;;10.50;99.90;;;;;;5112430;27;20450;-73
2022/09/20 04:39:02;;;;;;;6.35;1.85;;;;;;;;;;5101443;27;20558;-73
2022/09/20 04:41:56;;;;;;;8.75;1.90;;;;;;;;;;5093258;28;20416;-73
2022/09/20 04:44:41;;;;;;;10.25;2.05;;;;;;;;;;5101185;27;20422;-73
2022/09/20 04:47:07;;;;;;;6.07;2.00;;;;;;;;;;5095364;27;20426;-73
2022/09/20 04:49:36;;;;;;;6.82;1.98;;;;;;;;;;5114496;27;20402;-74
2022/09/20 04:52:05;;;;;;;9.75;2.40;;;;;;;;;;5104936;28;20510;-74
2022/09/20 04:54:40;;;;;;;9.75;2.50;;;;;;;;;;5078618;28;20414;-73
2022/09/20 04:57:12;;;;;;;7.20;1.80;;;;;;;;;;5092574;27;20494;-74
2022/09/20 04:59:45;;;;;;;8.18;2.00;;;;;;;;;;5089751;28;20473;-74
2022/09/20 05:02:20;;;;;;;7.90;1.77;;;;;;;;;;5110053;27;20977;-74
2022/09/20 05:04:59;;;;;;;7.18;1.90;;;;;;;;;;5108658;27;20422;-74
2022/09/20 05:07:37;;;;;;;6.63;1.73;;;;;;;;;;5107717;28;20849;-74
2022/09/20 05:10:25;;;;;;;7.97;2.17;;;;;;;;;;5086148;27;20418;-74
2022/09/20 05:13:09;;;;;;;6.57;1.88;;;;;;;;;;5095417;28;20419;-77
2022/09/20 05:16:01;;;;;;;8.50;2.00;;;10.60;99.90;;;;;;5094409;27;20478;-77
2022/09/20 05:18:46;;;;;;;5.68;1.60;;;;;;;;;;5114286;27;20387;-77
2022/09/20 05:21:22;;;;;;;9.65;2.00;;;;;;;;;;5111177;27;20425;-77
2022/09/20 05:23:51;;;;;;;11.18;2.20;;;;;;;;;;5091919;28;20901;-76
2022/09/20 05:26:31;;;;;;;5.13;1.77;;;10.60;99.90;;;;;;5061807;28;20433;-76
2022/09/20 05:29:02;;;;;;;6.00;1.80;;;;;;;;;;5073259;28;20420;-76
2022/09/20 05:31:39;;;;;;;7.68;1.92;;;;;;;;;;5058219;28;20507;-76
2022/09/20 05:34:24;;;;;;;6.53;1.55;;;;;;;;;;5046824;28;20495;-76
2022/09/20 05:37:09;;;;;;;8.40;2.17;;;;;;;;;;5050138;28;20419;-76
2022/09/20 05:39:59;;;;;;;7.30;2.27;;;;;;;;;;5032983;28;20444;-76
2022/09/20 05:42:33;;;;;;;11.73;4.00;;;;;;;;;;5044474;28;20527;-77
2022/09/20 05:45:03;;;;;;;11.02;2.63;;;;;;;;;;5034538;28;20443;-77
2022/09/20 05:47:52;;;;;;;9.85;2.25;;;;;;;;;;5032817;28;20432;-76
2022/09/20 05:50:33;;;;;;;8.43;2.20;;;;;;;;;;5017444;28;20420;-76
2022/09/20 05:53:22;;;;;;;8.18;1.98;;;10.60;99.90;;;;;;5038063;28;20417;-76
2022/09/20 05:55:51;;;;;;;10.40;2.53;;;;;;;;;;5047266;28;20420;-77
2022/09/20 05:58:23;;;;;;;13.70;2.63;;;;;;;;;;5035410;28;20431;-77
2022/09/20 06:00:53;;;;;;;10.05;2.35;;;;;;;;;;5036065;28;20418;-77
2022/09/20 06:03:22;;;;;;;11.68;2.95;;;;;;;;;;5020291;28;20576;-77
2022/09/20 06:06:15;;;;;;;7.80;2.60;;;10.30;99.90;;;;;;5023299;28;20427;-77
2022/09/20 06:08:42;;;;;;;10.85;3.00;;;;;;;;;;5055024;28;20415;-77
2022/09/20 06:11:26;;;;;;;9.95;2.53;;;;;;;;;;5056711;28;20430;-77
2022/09/20 06:14:02;;;;;;;10.65;2.72;;;10.50;99.90;;;;;;5036205;28;20460;-76
2022/09/20 06:16:38;;;;;;;5.80;2.30;;;;;;;;;;5035802;28;20421;-77
2022/09/20 06:19:23;;;;;;;7.85;2.50;;;10.20;99.90;;;;;;5036973;28;20416;-77
2022/09/20 06:21:49;;;;;;;11.10;2.83;;;;;;;;;;5066649;28;20421;-77
2022/09/20 06:24:24;;;;;;;9.20;2.50;;;;;;;;;;5036780;28;20420;-77
2022/09/20 06:26:52;;;;;;;8.98;2.17;;;;;;;;;;5038506;28;20419;-76
2022/09/20 06:29:27;;;;;;;9.43;2.50;;;10.80;99.90;;;;;;5056723;28;20791;-78
2022/09/20 06:31:54;;;;;;;8.60;2.22;;;;;;;;;;5039769;28;20426;-77
2022/09/20 06:34:20;;;;;;;10.98;2.70;;;;;;;;;;5055144;28;20422;-77
2022/09/20 06:42:29;;;;;;;12.02;2.70;;;;;;;;;;5068724;28;20941;-77
2022/09/20 06:44:55;;;;;;;10.23;2.50;;;;;;;;;;5045493;28;20503;-76
2022/09/20 06:47:22;;;;;;;8.23;2.22;;;;;;;;;;5056946;28;20424;-76
2022/09/20 06:49:48;;;;;;;6.57;1.90;;;;;;;;;;5042411;28;20496;-76
2022/09/20 06:52:17;;;;;;;7.63;1.80;;;12.00;99.90;;;;;;5063744;28;20916;-76
2022/09/20 06:54:44;;;;;;;9.90;2.17;;;;;;;;;;5067183;28;20501;-77
2022/09/20 06:57:11;;;;;;;7.50;2.30;;;;;;;;;;5054204;28;20423;-77
2022/09/20 06:59:38;;;;;;;10.40;2.00;;;;;;;;;;5056245;28;20740;-77
2022/09/20 07:02:04;;;;;;;10.07;2.10;;;;;;;;;;5052717;28;20779;-75
2022/09/20 07:04:31;;;;;;;7.97;2.37;;;;;;;;;;5056070;28;20457;-78
2022/09/20 07:07:06;;;;;;;8.23;2.30;;;11.90;99.90;;;;;;5047271;28;20420;-78
2022/09/20 07:09:32;;;;;;;7.70;1.95;;;;;;;;;;5052389;28;20526;-76
2022/09/20 07:11:58;;;;;;;9.52;2.28;;;;;;;;;;5071047;28;20886;-77
2022/09/20 07:14:25;;;;;;;9.88;2.63;;;;;;;;;;5069618;28;20412;-72
2022/09/20 07:16:51;;;;;;;8.68;2.72;;;;;;;;;;5055576;28;20432;-75
2022/09/20 07:19:17;;;;;;;9.20;2.58;;;;;;;;;;5060920;28;20417;-74
2022/09/20 07:21:44;;;;;;;5.65;2.10;;;;;;;;;;5073270;28;20881;-74
2022/09/20 07:24:10;;;;;;;7.57;2.10;;;;;;;;;;5047049;28;20449;-75
2022/09/20 07:26:37;;;;;;;7.95;1.88;;;;;;;;;;5055533;28;20423;-75
2022/09/20 07:29:05;;;;;;;10.15;2.20;;;;;;;;;;5066126;28;20780;-74
2022/09/20 07:31:32;;;;;;;8.63;2.15;;;;;;;;;;5055578;28;20416;-72
2022/09/20 07:33:58;;;;;;;8.50;1.98;;;;;;;;;;5071019;28;20418;-73
2022/09/20 07:36:24;;;;;;;9.10;2.28;;;;;;;;;;5055035;28;20419;-72
2022/09/20 07:38:51;;;;;;;7.00;1.90;;;12.00;99.90;;;;;;5043641;28;20436;-72
2022/09/20 07:41:18;;;;;;;8.95;1.92;;;11.90;99.90;;;;;;5064349;28;20832;-72
2022/09/20 07:43:45;;;;;;;7.83;2.00;;;12.20;99.90;;;;;;5066876;28;20820;-73
2022/09/20 07:46:14;;;;;;;6.93;1.90;;;;;;;;;;5057185;28;20465;-74
2022/09/20 07:48:40;;;;;;;7.50;2.10;;;;;;;;;;5038509;28;20408;-74
2022/09/20 07:51:11;;;;;;;9.70;2.13;;;;;;;;;;5073349;28;20778;-74
2022/09/20 07:53:38;;;;;;;11.43;2.35;;;12.40;99.90;;;;;;5082096;28;20415;-74
2022/09/20 07:56:06;;;;;;;7.57;2.00;;;;;;;;;;5037280;28;20481;-74
2022/09/20 07:58:33;;;;;;;8.05;2.38;;;13.00;99.90;;;;;;5059188;28;20425;-72
2022/09/20 08:01:00;;;;;;;14.15;2.53;;;;;;;;;;5070126;28;20477;-73
2022/09/20 08:03:27;;;;;;;9.68;1.92;;;;;;;;;;5063857;28;20425;-73
2022/09/20 08:05:59;;;;;;;7.68;1.80;;;;;;;;;;5037213;28;20423;-74
2022/09/20 08:08:25;;;;;;;8.35;2.08;;;;;;;;;;5059855;28;20505;-73
2022/09/20 08:10:51;;;;;;;8.35;2.28;;;;;;;;;;5055930;28;21008;-73
2022/09/20 08:13:17;;;;;;;9.65;2.08;;;;;;;;;;5051202;28;21021;-72
2022/09/20 08:15:43;;;;;;;9.48;1.77;;;;;;;;;;5054204;28;20511;-73
2022/09/20 08:18:10;;;;;;;7.47;1.90;;;;;;;;;;5062831;28;20521;-72
2022/09/20 08:20:37;;;;;;;7.55;1.48;;;;;;;;;;5074174;28;20881;-72
2022/09/20 08:23:04;;;;;;;3.72;1.38;;;;;;;;;;5048238;28;20433;-73
2022/09/20 08:25:30;;;;;;;7.10;1.70;;;;;;;;;;5054276;28;20431;-72
2022/09/20 08:27:57;;;;;;;8.73;1.90;;;;;;;;;;5057284;28;20456;-72
2022/09/20 08:30:23;;;;;;;7.60;1.67;;;;;;;;;;5072302;28;20516;-72
2022/09/20 08:32:49;;;;;;;6.45;1.40;;;;;;;;;;5026180;28;20489;-72
2022/09/20 08:35:16;;;;;;;7.32;1.25;;;15.20;99.90;;;;;;5064373;28;20606;-72
2022/09/20 08:37:44;;;;;;;8.27;1.48;;;;;;;;;;5052533;28;20762;-71
2022/09/20 08:40:14;;;;;;;7.97;1.50;;;15.40;99.90;;;;;;5057058;28;20423;-72
2022/09/20 08:42:43;;;;;;;6.22;1.95;;;;;;;;;;5081152;28;20383;-72
2022/09/20 08:45:14;;;;;;;5.63;1.35;;;;;;;;;;5042998;28;20402;-72
2022/09/20 08:48:01;;;;;;;7.78;1.85;;;15.70;99.90;;;;;;5071405;28;20801;-72
2022/09/20 08:50:27;;;;;;;9.77;2.95;;;;;;;;;;5068952;28;20471;-71
2022/09/20 08:52:55;;;;;;;6.55;1.60;;;;;;;;;;5053927;28;20498;-71
2022/09/20 08:55:23;;;;;;;9.65;2.00;;;;;;;;;;5070380;28;20420;-72
2022/09/20 08:57:52;;;;;;;8.25;1.20;;;16.00;99.90;;;;;;5072996;28;20502;-72
2022/09/20 09:00:19;;;;;;;7.03;1.80;;;;;;;;;;5065338;28;20749;-72
2022/09/20 09:02:46;;;;;;;7.80;1.48;;;;;;;;;;5064127;28;20482;-71
2022/09/20 09:05:34;;;;;;;8.15;1.35;;;17.00;99.90;;;;;;5059235;28;20756;-72
2022/09/20 09:08:06;;;;;;;7.63;1.30;;;16.70;99.90;;;;;;5057675;28;20436;-71
2022/09/20 09:10:36;;;;;;;12.80;1.80;;;16.70;99.90;;;;;;5058603;28;20423;-72
2022/09/20 09:13:04;;;;;;;7.65;1.70;;;;;;;;;;5060641;28;20422;-71
2022/09/20 09:15:34;;;;;;;8.13;1.55;;;17.10;99.90;;;;;;5052383;28;20745;-73
2022/09/20 09:18:00;;;;;;;6.97;1.50;;;17.00;99.90;;;;;;5058844;28;20424;-72
2022/09/20 09:20:26;;;;;;;5.63;1.85;;;;;;;;;;5053931;28;20940;-71
2022/09/20 09:23:07;;;;;;;9.70;2.20;;;16.50;99.90;;;;;;5056376;28;20472;-72
2022/09/20 09:25:38;;;;;;;6.05;1.73;;;;;;;;;;5065269;28;20431;-72
2022/09/20 09:28:07;;;;;;;9.50;2.30;;;;;;;;;;5061785;28;20430;-72
2022/09/20 09:30:33;;;;;;;8.35;1.58;;;;;;;;;;5052722;28;21010;-72
2022/09/20 09:33:16;;;;;;;7.33;1.30;;;;;;;;;;5051045;28;20471;-72
2022/09/20 09:35:44;;;;;;;7.30;1.70;;;12.70;99.90;;;;;;5039376;28;21027;-72
2022/09/20 09:38:18;;;;;;;5.32;1.50;;;;;;;;;;5061678;28;20420;-71
2022/09/20 09:41:10;;;;;;;4.82;1.42;;;;;;;;;;5056172;28;20484;-71
2022/09/20 09:43:39;;;;;;;4.93;1.20;;;;;;;;;;5041988;28;20427;-71
2022/09/20 09:46:25;;;;;;;6.47;1.42;;;;;;;;;;5040595;28;20419;-72
2022/09/20 09:49:07;;;;;;;4.18;1.15;;;;;;;;;;5044012;28;20423;-71
2022/09/20 09:51:34;;;;;;;7.55;1.42;;;13.10;99.90;;;;;;5068265;28;20468;-72
2022/09/20 09:54:01;;;;;;;6.97;1.70;;;;;;;;;;5059099;28;20454;-72
2022/09/20 09:56:27;;;;;;;4.85;1.35;;;;;;;;;;5095237;28;20727;-73
2022/09/20 09:58:57;;;;;;;5.85;1.60;;;;;;;;;;5066139;28;20428;-73
2022/09/20 10:01:38;;;;;;;8.40;2.10;;;;;;;;;;5068976;28;20492;-73
2022/09/20 10:04:04;;;;;;;5.70;1.55;;;;;;;;;;5068642;28;20450;-72
2022/09/20 10:06:38;;;;;;;5.65;1.48;;;;;;;;;;5057677;28;20423;-72
2022/09/20 10:09:04;;;;;;;5.38;1.80;;;;;;;;;;5064220;28;20442;-72
2022/09/20 10:11:55;;;;;;;7.28;2.00;;;;;;;;;;5061327;28;20422;-72
2022/09/20 10:14:24;;;;;;;7.53;2.30;;;;;;;;;;5064114;28;20418;-72
2022/09/20 10:17:09;;;;;;;5.78;2.00;;;;;;;;;;5060099;28;20423;-72
2022/09/20 10:20:02;;;;;;;5.40;1.30;;;14.60;99.90;;;;;;5055225;28;20538;-71
2022/09/20 10:23:08;;;;;;;6.45;1.50;;;14.60;99.90;;;;;;5052372;28;20466;-72
2022/09/20 10:25:38;;;;;;;4.45;1.20;;;;;;;;;;5078794;28;20431;-72
2022/09/20 10:28:16;;;;;;;6.13;1.20;;;;;;;;;;5037587;28;20468;-72
2022/09/20 10:31:00;;;;;;;6.63;1.60;;;;;;;;;;5040753;28;20432;-72
2022/09/20 10:33:58;;;;;;;6.25;2.05;;;15.00;99.90;;;;;;5064235;28;20423;-72
2022/09/20 10:36:31;;;;;;;5.90;1.27;;;;;;;;;;5040322;28;20573;-72
2022/09/20 10:39:10;;;;;;;7.45;1.90;;;;;;;;;;5061002;28;20931;-71
2022/09/20 10:44:42;;;;;;;4.50;1.10;;;;;;;;;;5074183;28;20434;-72
2022/09/20 10:47:08;;;;;;;7.15;1.50;;;;;;;;;;5039045;28;20425;-72
2022/09/20 10:49:40;;;;;;;6.18;1.40;;;15.10;99.90;;;;;;5068233;28;20768;-72
2022/09/20 10:52:24;;;;;;;5.60;1.10;;;;;;;;;;5062258;28;20433;-71
2022/09/20 10:54:51;;;;;;;6.47;1.70;;;;;;;;;;5054182;28;20469;-72
2022/09/20 10:57:37;;;;;;;7.65;1.35;;;;;;;;;;5035756;28;20468;-72
2022/09/20 11:00:13;;;;;;;8.52;1.60;;;;;;;;;;5066282;28;20492;-72
2022/09/20 11:02:50;;;;;;;6.88;1.33;;;;;;;;;;5054982;28;20946;-72
2022/09/20 11:05:53;;;;;;;7.07;1.83;;;16.10;99.90;;;;;;5065785;28;20468;-72
2022/09/20 11:08:21;;;;;;;6.82;1.63;;;;;;;;;;5061579;28;20940;-72
2022/09/20 11:10:57;;;;;;;8.55;1.77;;;16.30;99.90;;;;;;5055771;28;20433;-71
2022/09/20 11:13:41;;;;;;;6.55;1.50;;;;;;;;;;5068828;28;20416;-71
2022/09/20 11:16:46;;;;;;;5.85;1.35;;;16.20;99.90;;;;;;5069461;28;20423;-71
2022/09/20 11:19:18;;;;;;;11.75;1.50;;;;;;;;;;5055322;28;20421;-72
2022/09/20 11:21:51;;;;;;;7.15;1.30;;;;;;;;;;5060991;28;20473;-72
2022/09/20 11:24:22;;;;;;;6.43;1.50;;;16.20;99.90;;;;;;5060063;28;20460;-71
2022/09/20 11:26:56;;;;;;;4.80;1.40;;;16.50;99.90;;;;;;5038710;28;20423;-72
2022/09/20 11:29:32;;;;;;;6.03;1.23;;;16.30;99.90;;;;;;5063729;28;20954;-71
2022/09/20 11:32:20;;;;;;;6.13;1.27;;;;;;;;;;5072371;28;20520;-72
2022/09/20 11:34:54;;;;;;;8.27;1.33;;;16.20;99.90;;;;;;5065594;28;20425;-72
2022/09/20 11:37:22;;;;;;;6.80;1.77;;;;;;;;;;5060135;28;20508;-72
2022/09/20 11:39:53;;;;;;;7.07;1.40;;;;;;;;;;5069470;28;20508;-72
2022/09/20 11:42:26;;;;;;;5.40;1.30;;;17.00;99.90;;;;;;5065191;28;20965;-72
2022/09/20 11:44:53;;;;;;;6.50;1.33;;;16.10;99.90;;;;;;5054705;28;20447;-72
2022/09/20 11:47:22;;;;;;;6.27;1.57;;;;;;;;;;5073633;28;20980;-72
2022/09/20 11:50:07;;;;;;;9.75;1.70;;;;;;;;;;5059161;28;20465;-73
2022/09/20 11:52:53;;;;;;;8.07;1.58;;;16.40;99.90;;;;;;5078686;28;20414;-72
2022/09/20 11:55:28;;;;;;;7.53;1.60;;;16.70;99.90;;;;;;5037366;28;20915;-73
2022/09/20 11:57:58;;;;;;;7.03;1.70;;;;;;;;;;5056831;28;20520;-72
2022/09/20 12:00:31;;;;;;;8.07;1.55;;;;;;;;;;5047396;28;20908;-72
2022/09/20 12:02:58;;;;;;;9.75;1.90;;;17.20;99.90;;;;;;5053766;28;20773;-72
2022/09/20 12:05:36;;;;;;;3.17;0.98;;;17.30;99.90;;;;;;5060173;28;20500;-73
2022/09/20 12:08:16;;;;;;;4.60;1.40;;;17.30;99.90;;;;;;5053792;28;20409;-72
2022/09/20 12:10:42;;;;;;;3.30;1.20;;;;;;;;;;5073554;28;20425;-72
2022/09/20 12:13:23;;;;;;;4.72;1.20;;;17.70;99.90;;;;;;5084588;28;20424;-71
2022/09/20 12:16:03;;;;;;;6.03;1.17;;;17.70;99.90;;;;;;5071098;28;20831;-73
2022/09/20 12:18:31;;;;;;;6.80;2.33;;;;;;;;;;5065953;28;20434;-72
2022/09/20 12:21:04;;;;;;;5.13;1.95;;;16.90;99.90;;;;;;5068440;28;20421;-73
2022/09/20 12:23:39;;;;;;;9.35;2.40;;;16.60;99.90;;;;;;5058873;28;20417;-72
2022/09/20 12:26:20;;;;;;;5.38;2.15;;;;;;;;;;5062096;28;22426;-72
2022/09/20 12:28:50;;;;;;;6.35;2.20;;;16.30;99.90;;;;;;5056539;28;20487;-72
2022/09/20 12:31:22;;;;;;;7.32;2.55;;;16.40;99.90;;;;;;5075941;28;20936;-72
2022/09/20 12:34:00;;;;;;;5.88;1.70;;;16.70;99.90;;;;;;5039903;28;20507;-71
2022/09/20 12:36:28;;;;;;;4.57;1.37;;;17.00;99.90;;;;;;5053760;28;20404;-72
2022/09/20 12:39:12;;;;;;;5.63;1.60;;;17.30;99.90;;;;;;5058692;28;20827;-77
2022/09/20 12:41:58;;;;;;;4.35;1.08;;;17.60;99.90;;;;;;5044821;28;20481;-78
2022/09/20 12:44:48;;;;;;;5.37;1.33;;;17.60;99.90;;;;;;5054740;28;20899;-77
2022/09/20 12:47:22;;;;;;;3.38;0.98;;;;;;;;;;5058210;28;20419;-78
2022/09/20 12:52:56;;;;;;;3.13;1.20;;;18.10;99.90;;;;;;5062887;28;20441;-78
2022/09/20 12:55:51;;;;;;;3.53;1.13;;;18.00;99.90;;;;;;5058994;28;20533;-78
2022/09/20 12:58:29;;;;;;;4.95;1.33;;;17.80;99.90;;;;;;5052674;28;20962;-78
2022/09/20 13:00:58;;;;;;;4.57;1.03;;;;;;;;;;5052529;28;20424;-77
2022/09/20 13:03:27;;;;;;;6.20;1.37;;;;;;;;;;5054822;28;20831;-77
2022/09/20 13:06:05;;;;;;;8.70;1.40;;;;;;;;;;5064230;28;20449;-77
2022/09/20 13:08:59;;;;;;;3.50;1.00;;;17.50;99.90;;;;;;5039820;28;20410;-80
2022/09/20 13:11:33;;;;;;;3.88;1.23;;;;;;;;;;5073109;28;20970;-77
2022/09/20 13:14:08;;;;;;;5.82;1.30;;;17.90;99.90;;;;;;5064534;28;20510;-77
2022/09/20 13:16:37;;;;;;;3.15;1.83;;;;;;;;;;5052993;28;20419;-77
2022/09/20 13:19:04;;;;;;;5.90;1.00;;;17.80;99.90;;;;;;5058407;28;20421;-76
2022/09/20 13:21:36;;;;;;;4.70;1.00;;;17.70;99.90;;;;;;5071333;28;20425;-77
2022/09/20 13:24:03;;;;;;;5.57;1.10;;;17.70;99.90;;;;;;5069122;28;20917;-76
2022/09/20 13:26:33;;;;;;;5.32;1.23;;;;;;;;;;5072766;28;20398;-76
2022/09/20 13:28:59;;;;;;;5.63;1.20;;;17.60;99.90;;;;;;5062349;28;20426;-76
2022/09/20 13:31:28;;;;;;;5.65;1.40;;;17.50;99.90;;;;;;5065405;28;20925;-76
2022/09/20 13:33:55;;;;;;;5.47;1.42;;;;;;;;;;5058475;28;20520;-76
2022/09/20 13:36:28;;;;;;;5.25;1.20;;;17.20;99.90;;;;;;5066639;28;20426;-76
2022/09/20 13:38:55;;;;;;;4.40;1.20;;;17.00;99.90;;;;;;5052556;28;20420;-77
2022/09/20 13:41:22;;;;;;;5.22;1.80;;;;;;;;;;5059274;28;20768;-76
2022/09/20 13:43:49;;;;;;;5.45;3.28;;;;;;;;;;5065005;28;20522;-77
2022/09/20 13:46:22;;;;;;;8.07;3.70;;;;;;;;;;5089162;28;20409;-76
2022/09/20 13:48:52;;;;;;;8.73;4.80;;;;;;;;;;5048149;28;20423;-77
2022/09/20 13:51:19;;;;;;;10.00;5.18;;;16.40;99.90;;;;;;5057133;28;20781;-77
2022/09/20 13:53:46;;;;;;;4.90;1.40;;;;;;;;;;5047325;28;20455;-77
2022/09/20 13:56:42;;;;;;;5.18;2.00;;;;;;;;;;5047973;28;20424;-71
2022/09/20 13:59:13;;;;;;;7.18;3.17;;;;;;;;;;5045587;28;20429;-71
2022/09/20 14:01:50;;;;;;;7.25;3.10;;;16.90;99.90;;;;;;5071434;28;20448;-72
2022/09/20 14:04:18;;;;;;;5.25;1.20;;;;;;;;;;5057059;28;20418;-73
2022/09/20 14:06:44;;;;;;;5.82;1.52;;;16.70;99.90;;;;;;5057961;28;20438;-72
2022/09/20 14:09:25;;;;;;;5.55;1.50;;;17.00;99.90;;;;;;5035757;28;20454;-74
2022/09/20 14:11:52;;;;;;;4.13;1.13;;;;;;;;;;5057180;28;20489;-72
2022/09/20 14:14:19;;;;;;;5.77;1.50;;;;;;;;;;5064779;28;20405;-73
2022/09/20 14:16:47;;;;;;;4.13;1.30;;;16.60;99.90;;;;;;5066663;28;20414;-74
2022/09/20 14:19:16;;;;;;;7.15;1.50;;;16.80;99.90;;;;;;5056825;28;20506;-72
2022/09/20 14:21:42;;;;;;;7.03;2.05;;;16.70;99.90;;;;;;5052169;28;20424;-72
2022/09/20 14:24:35;;;;;;;8.98;3.00;;;16.90;99.90;;;;;;5070545;28;20427;-72
2022/09/20 14:27:19;;;;;;;7.73;1.20;;;16.90;99.90;;;;;;5051550;28;20477;-73
2022/09/20 14:29:50;;;;;;;5.00;1.20;;;17.00;99.90;;;;;;5063772;28;20490;-73
2022/09/20 14:32:19;;;;;;;7.78;1.40;;;;;;;;;;5055310;28;20509;-73
2022/09/20 14:34:46;;;;;;;5.57;1.30;;;;;;;;;;5060901;28;20424;-74
2022/09/20 14:37:26;;;;;;;5.30;1.27;;;17.30;99.90;;;;;;5072171;28;20458;-74
2022/09/20 14:39:54;;;;;;;3.92;1.10;;;;;;;;;;5050318;28;20446;-74
2022/09/20 14:42:40;;;;;;;4.80;1.15;;;;;;;;;;5070928;28;20984;-74
2022/09/20 14:45:07;;;;;;;3.72;1.20;;;17.20;99.90;;;;;;5063835;28;20420;-73
2022/09/20 14:47:38;;;;;;;5.15;1.40;;;;;;;;;;5054888;28;20420;-74
2022/09/20 14:50:24;;;;;;;5.20;1.33;;;17.20;99.90;;;;;;5072625;28;20407;-74
2022/09/20 14:53:02;;;;;;;5.40;1.10;;;;;;;;;;5061096;28;20888;-71
2022/09/20 14:55:31;;;;;;;6.68;1.20;;;16.70;99.90;;;;;;5069366;28;20948;-73